Time;durP1;ratioP1;P1;durP2;ratioP2;P2;SDS_P1;SDS_P2;PMS_P1;PMS_P2;Temp;Humidity;BMP_temperature;BMP_pressure;BME280_temperature;BME280_humidity;BME280_pressure;Samples;Min_cycle;Max_cycle;Signal;HPM_P1;HPM_P2
2022/04/07 00:01:31;;;;;;;7.93;3.53;;;;;;;0.92;100.00;99136.16;6224821;23;20043;-65
2022/04/07 00:04:16;;;;;;;5.88;2.38;;;;;;;0.78;100.00;99137.81;6214933;23;20410;-65
2022/04/07 00:07:01;;;;;;;4.60;2.10;;;;;;;0.91;100.00;99137.88;6193379;23;20035;-66
2022/04/07 00:09:45;;;;;;;4.18;2.30;;;;;;;0.88;100.00;99134.41;6214926;23;20031;-65
2022/04/07 00:12:33;;;;;;;6.13;3.60;;;;;;;0.93;100.00;99132.69;6224345;23;20488;-65
2022/04/07 00:15:17;;;;;;;5.90;2.70;;;;;;;0.97;100.00;99143.16;6226884;23;20574;-65
2022/04/07 00:18:04;;;;;;;5.03;3.00;;;;;;;1.01;100.00;99151.88;6227577;23;20075;-65
2022/04/07 00:20:52;;;;;;;6.32;3.45;;;;;;;0.97;100.00;99152.72;6173170;23;20424;-65
2022/04/07 00:23:36;;;;;;;8.95;5.43;;;;;;;0.99;100.00;99148.41;6226905;23;20031;-65
2022/04/07 00:26:21;;;;;;;12.27;7.40;;;;;;;1.03;100.00;99155.41;6214961;23;20108;-66
2022/04/07 00:29:06;;;;;;;12.68;7.70;;;;;;;1.04;100.00;99149.31;6225250;23;20035;-66
2022/04/07 00:31:56;;;;;;;17.23;9.02;;;;;;;0.99;100.00;99153.63;6214101;23;20028;-68
2022/04/07 00:34:44;;;;;;;16.52;7.65;;;;;;;0.94;100.00;99137.91;6224999;23;20414;-66
2022/04/07 00:37:29;;;;;;;14.07;6.93;;;;;;;1.01;100.00;99144.94;6224621;23;20031;-66
2022/04/07 00:40:13;;;;;;;9.60;5.53;;;;;;;0.95;100.00;99137.06;6225839;23;20126;-65
2022/04/07 00:42:58;;;;;;;8.40;4.70;;;;;;;1.08;100.00;99151.06;6214110;23;20098;-65
2022/04/07 00:45:42;;;;;;;7.57;4.60;;;;;;;1.00;100.00;99118.81;6215121;23;20090;-66
2022/04/07 00:48:28;;;;;;;8.67;4.30;;;;;;;0.92;100.00;99105.75;6224225;23;20031;-65
2022/04/07 00:51:12;;;;;;;7.50;4.18;;;;;;;1.09;100.00;99142.38;6214579;23;20525;-65
2022/04/07 00:53:57;;;;;;;6.00;3.80;;;;;;;1.16;100.00;99141.56;6225687;23;20032;-65
2022/04/07 00:56:42;;;;;;;5.80;3.80;;;;;;;1.07;100.00;99142.34;6225567;23;20074;-66
2022/04/07 00:59:27;;;;;;;5.15;2.97;;;;;;;0.99;100.00;99141.44;6223917;23;20027;-66
2022/04/07 01:02:13;;;;;;;4.57;2.90;;;;;;;1.05;100.00;99124.94;6225326;23;20031;-65
2022/04/07 01:04:58;;;;;;;6.70;3.08;;;;;;;1.20;100.00;99140.72;6224813;23;20028;-65
2022/04/07 01:07:42;;;;;;;6.53;3.15;;;;;;;1.09;100.00;99129.31;6224345;23;20036;-65
2022/04/07 01:10:28;;;;;;;5.95;2.95;;;;;;;1.14;100.00;99140.69;6214266;23;20078;-65
2022/04/07 01:13:15;;;;;;;5.13;3.35;;;;;;;1.06;100.00;99139.75;6171824;23;20119;-65
2022/04/07 01:16:00;;;;;;;5.28;3.47;;;;;;;1.08;100.00;99140.63;6214042;23;20032;-66
2022/04/07 01:18:46;;;;;;;6.40;4.00;;;;;;;1.12;100.00;99142.41;6192857;23;20505;-65
2022/04/07 01:21:32;;;;;;;8.93;3.75;;;;;;;1.04;100.00;99138.88;6224035;23;20059;-66
2022/04/07 01:24:18;;;;;;;6.20;4.28;;;;;;;1.20;100.00;99140.72;6224099;23;20075;-66
2022/04/07 01:27:03;;;;;;;8.50;4.30;;;;;;;1.23;100.00;99136.38;6215650;23;20063;-65
2022/04/07 01:29:48;;;;;;;8.27;4.03;;;;;;;1.08;100.00;99091.03;6193553;23;20031;-65
2022/04/07 01:32:45;;;;;;;6.18;3.83;;;;;;;1.47;100.00;99140.91;6215631;23;20124;-66
2022/04/07 01:35:30;;;;;;;6.72;4.30;;;;;;;1.34;100.00;99134.72;6224845;23;20055;-65
2022/04/07 01:38:16;;;;;;;8.23;3.88;;;;;;;1.41;100.00;99136.50;6193457;23;20398;-64
2022/04/07 01:41:01;;;;;;;6.78;4.38;;;;;;;1.44;100.00;99131.31;6224736;23;20027;-67
2022/04/07 01:43:48;;;;;;;7.90;4.35;;;;;;;1.61;100.00;99136.59;6224455;23;20095;-66
2022/04/07 01:46:34;;;;;;;6.90;4.03;;;;;;;1.79;100.00;99132.38;6224142;23;20043;-66
2022/04/07 01:49:21;;;;;;;8.82;4.22;;;;;;;1.93;100.00;99114.97;6193472;23;20124;-65
2022/04/07 01:52:07;;;;;;;8.10;4.25;;;;;;;2.18;100.00;99129.00;6193177;23;20040;-66
2022/04/07 01:54:53;;;;;;;9.60;4.47;;;;;;;2.09;100.00;99129.84;6214089;23;20027;-66
2022/04/07 01:57:38;;;;;;;11.95;4.78;;;;;;;2.13;100.00;99130.75;6225353;23;20028;-66
2022/04/07 02:00:23;;;;;;;7.15;4.25;;;;;;;2.25;100.00;99121.19;6213989;23;20074;-66
2022/04/07 02:03:09;;;;;;;9.30;4.20;;;;;;;2.45;100.00;99122.09;6224948;23;20161;-67
2022/04/07 02:05:53;;;;;;;9.20;4.13;;;;;;;2.62;100.00;99133.47;6192850;23;20467;-66
2022/04/07 02:08:38;;;;;;;8.48;4.50;;;;;;;2.41;100.00;99115.09;6225346;23;20086;-65
2022/04/07 02:11:22;;;;;;;5.87;3.87;;;;;;;2.48;100.00;99119.47;6224931;23;20401;-66
2022/04/07 02:14:07;;;;;;;10.63;4.07;;;;;;;2.61;100.00;99134.31;6215070;23;20246;-66
2022/04/07 02:16:51;;;;;;;7.20;4.30;;;;;;;2.64;100.00;99131.72;6225298;23;20111;-65
2022/04/07 02:19:35;;;;;;;7.13;3.83;;;;;;;2.32;100.00;99094.19;6215608;23;20321;-66
2022/04/07 02:22:20;;;;;;;7.50;4.30;;;;;;;2.64;100.00;99136.06;6225489;23;20116;-66
2022/04/07 02:25:08;;;;;;;6.63;4.35;;;;;;;2.55;100.00;99133.44;6173936;23;20030;-67
2022/04/07 02:27:52;;;;;;;7.97;4.50;;;;;;;2.65;100.00;99129.97;6226176;23;20520;-67
2022/04/07 02:30:36;;;;;;;9.50;5.10;;;;;;;2.44;100.00;99124.69;6227488;23;20032;-67
2022/04/07 02:33:21;;;;;;;7.03;4.35;;;;;;;2.60;100.00;99127.34;6226130;23;20251;-65
2022/04/07 02:36:07;;;;;;;9.23;5.00;;;;;;;2.72;100.00;99122.13;6221617;23;20075;-66
2022/04/07 02:38:52;;;;;;;8.90;4.68;;;;;;;2.92;100.00;99130.84;6215802;23;20358;-66
2022/04/07 02:41:36;;;;;;;8.10;4.53;;;;;;;2.99;100.00;99129.09;6227184;23;20032;-66
2022/04/07 02:44:21;;;;;;;11.57;5.47;;;;;;;2.99;100.00;99116.88;6204866;23;20032;-66
2022/04/07 02:47:05;;;;;;;10.35;5.05;;;;;;;2.91;100.00;99102.94;6227134;23;20031;-66
2022/04/07 02:49:50;;;;;;;7.55;5.05;;;;;;;2.95;100.00;99090.69;6216444;23;20497;-64
2022/04/07 02:52:35;;;;;;;9.88;4.82;;;;;;;3.07;100.00;99146.56;6226831;23;20028;-65
2022/04/07 02:55:19;;;;;;;11.43;5.15;;;;;;;3.17;100.00;99136.97;6226829;23;20035;-66
2022/04/07 02:58:04;;;;;;;8.63;4.22;;;;;;;3.17;100.00;99127.34;6225537;23;20035;-66
2022/04/07 03:00:48;;;;;;;8.50;4.40;;;;;;;3.27;100.00;99133.44;6226466;23;20477;-65
2022/04/07 03:03:32;;;;;;;9.77;4.47;;;;;;;3.14;100.00;99102.91;6225508;23;20036;-65
2022/04/07 03:06:17;;;;;;;10.85;5.25;;;;;;;3.29;100.00;99134.31;6215538;23;20031;-66
2022/04/07 03:09:01;;;;;;;8.57;4.57;;;;;;;3.39;100.00;99138.66;6204074;23;20032;-65
2022/04/07 03:11:46;;;;;;;6.88;4.40;;;;;;;3.38;100.00;99134.31;6216778;23;20028;-66
2022/04/07 03:14:31;;;;;;;5.97;4.13;;;;;;;3.55;100.00;99149.13;6226726;23;20048;-64
2022/04/07 03:17:15;;;;;;;7.60;3.88;;;;;;;3.69;100.00;99155.19;6226607;23;20027;-66
2022/04/07 03:20:01;;;;;;;6.15;4.03;;;;;;;3.60;100.00;99144.72;6225706;23;20085;-66
2022/04/07 03:22:47;;;;;;;6.30;4.50;;;;;;;3.30;100.00;99112.47;6226231;23;20388;-66
2022/04/07 03:25:31;;;;;;;8.45;4.38;;;;;;;3.31;100.00;99115.09;6226144;23;20094;-65
2022/04/07 03:28:16;;;;;;;7.75;5.03;;;;;;;3.54;100.00;99144.75;6203869;23;20076;-66
2022/04/07 03:31:00;;;;;;;8.57;4.90;;;;;;;3.45;100.00;99121.16;6193875;23;20059;-66
2022/04/07 03:33:44;;;;;;;6.45;3.65;;;;;;;3.48;100.00;99146.53;6225732;23;20027;-65
2022/04/07 03:36:29;;;;;;;8.80;5.00;;;;;;;3.44;100.00;99142.16;6226334;23;20047;-67
2022/04/07 03:39:13;;;;;;;6.43;3.85;;;;;;;3.38;100.00;99142.16;6225307;23;20082;-66
2022/04/07 03:41:58;;;;;;;7.40;4.00;;;;;;;3.43;100.00;99125.56;6226109;23;20051;-65
2022/04/07 03:44:43;;;;;;;7.85;4.10;;;;;;;3.45;100.00;99097.59;6225604;23;20101;-66
2022/04/07 03:47:28;;;;;;;6.93;4.00;;;;;;;3.59;100.00;99114.16;6193427;23;20078;-66
2022/04/07 03:50:12;;;;;;;6.15;3.97;;;;;;;3.63;100.00;99134.25;6225931;23;20043;-66
2022/04/07 03:52:57;;;;;;;7.25;4.40;;;;;;;3.67;100.00;99143.84;6225184;23;20032;-70
2022/04/07 03:55:42;;;;;;;6.55;3.53;;;;;;;3.65;100.00;99142.97;6225724;23;20116;-70
2022/04/07 03:58:29;;;;;;;7.80;4.13;;;;;;;3.62;100.00;99113.28;6224878;23;20031;-66
2022/04/07 04:01:14;;;;;;;8.68;4.88;;;;;;;3.83;100.00;99142.03;6224120;23;20070;-67
2022/04/07 04:03:58;;;;;;;8.80;4.88;;;;;;;3.81;100.00;99139.41;6224457;23;20108;-68
2022/04/07 04:06:42;;;;;;;7.30;4.90;;;;;;;3.76;100.00;99146.44;6224192;23;20090;-65
2022/04/07 04:09:27;;;;;;;8.82;4.22;;;;;;;3.64;100.00;99114.16;6189378;23;20111;-65
2022/04/07 04:12:11;;;;;;;10.17;4.80;;;;;;;3.87;100.00;99133.28;6218654;23;20071;-72
2022/04/07 04:14:55;;;;;;;9.38;5.18;;;;;;;4.16;100.00;99136.66;6219501;23;20027;-67
2022/04/07 04:17:40;;;;;;;9.43;5.30;;;;;;;4.11;100.00;99141.03;6216470;23;20358;-66
2022/04/07 04:20:24;;;;;;;9.45;5.22;;;;;;;4.31;100.00;99139.19;6219281;23;20116;-67
2022/04/07 04:23:09;;;;;;;10.13;5.22;;;;;;;4.44;100.00;99128.63;6217500;23;20143;-67
2022/04/07 04:25:53;;;;;;;8.17;4.97;;;;;;;4.45;100.00;99135.63;6198307;23;20367;-67
2022/04/07 04:28:37;;;;;;;9.80;5.30;;;;;;;4.63;100.00;99132.88;6219830;23;20267;-68
2022/04/07 04:31:24;;;;;;;6.97;4.57;;;;;;;4.47;100.00;99107.63;6219386;23;20372;-66
2022/04/07 04:34:09;;;;;;;6.28;3.83;;;;;;;4.20;100.00;99130.53;6188224;23;20071;-67
2022/04/07 04:36:54;;;;;;;6.93;4.03;;;;;;;4.16;100.00;99128.81;6163583;23;20335;-69
2022/04/07 04:39:38;;;;;;;6.45;4.13;;;;;;;4.20;100.00;99125.28;6219116;23;20832;-68
2022/04/07 04:42:22;;;;;;;7.87;4.47;;;;;;;4.16;100.00;99126.19;6216665;23;20031;-67
2022/04/07 04:45:07;;;;;;;5.93;4.35;;;;;;;4.33;100.00;99137.44;6219328;23;20461;-68
2022/04/07 04:47:52;;;;;;;5.38;3.90;;;;;;;4.12;100.00;99129.69;6221188;23;20074;-66
2022/04/07 04:50:37;;;;;;;8.45;4.22;;;;;;;3.91;100.00;99114.91;6209209;23;20449;-67
2022/04/07 04:53:22;;;;;;;7.20;4.60;;;;;;;4.17;100.00;99133.16;6219008;23;20106;-66
2022/04/07 04:56:07;;;;;;;8.80;4.80;;;;;;;4.40;100.00;99126.03;6207394;23;20031;-69
2022/04/07 04:58:51;;;;;;;7.28;4.97;;;;;;;4.37;100.00;99115.56;6188197;23;20055;-74
2022/04/07 05:01:36;;;;;;;7.72;4.80;;;;;;;4.66;100.00;99127.63;6189986;23;20032;-67
2022/04/07 05:04:21;;;;;;;11.40;4.72;;;;;;;4.35;100.00;99123.44;6226036;23;20110;-67
2022/04/07 05:07:05;;;;;;;7.97;3.83;;;;;;;4.41;100.00;99135.66;6228578;23;20181;-66
2022/04/07 05:09:55;;;;;;;5.10;3.47;;;;;;;4.33;100.00;99151.44;6227538;23;20035;-67
2022/04/07 05:12:40;;;;;;;8.43;4.10;;;;;;;4.35;100.00;99144.44;6166521;23;20132;-67
2022/04/07 05:15:25;;;;;;;5.60;3.60;;;;;;;4.50;100.00;99143.47;6184758;23;20127;-72
2022/04/07 05:18:10;;;;;;;10.23;4.07;;;;;;;4.41;100.00;99144.41;6187594;23;20166;-67
2022/04/07 05:20:54;;;;;;;6.47;3.13;;;;;;;3.97;100.00;99145.50;6216595;23;20051;-69
2022/04/07 05:23:39;;;;;;;7.43;3.80;;;;;;;3.98;100.00;99142.88;6166755;23;20438;-70
2022/04/07 05:26:23;;;;;;;7.15;3.88;;;;;;;4.16;100.00;99158.50;6188027;23;20106;-71
2022/04/07 05:29:07;;;;;;;8.88;5.07;;;;;;;3.99;100.00;99148.97;6187507;23;20063;-68
2022/04/07 05:31:52;;;;;;;7.15;4.13;;;;;;;4.03;100.00;99130.59;6224162;23;20403;-68
2022/04/07 05:34:37;;;;;;;6.27;3.50;;;;;;;4.23;100.00;99144.50;6224625;23;20477;-70
2022/04/07 05:37:22;;;;;;;7.40;4.20;;;;;;;4.33;100.00;99159.31;6213097;23;20640;-68
2022/04/07 05:40:10;;;;;;;7.45;4.70;;;;;;;4.32;100.00;99154.09;6222885;23;20092;-67
2022/04/07 05:42:56;;;;;;;6.93;4.57;;;;;;;3.91;100.00;99146.38;6224989;23;20028;-68
2022/04/07 05:45:42;;;;;;;8.48;4.80;;;;;;;3.78;100.00;99144.69;6213321;23;20074;-68
2022/04/07 05:48:27;;;;;;;9.35;4.72;;;;;;;3.81;100.00;99136.78;6202296;23;20074;-75
2022/04/07 05:51:12;;;;;;;7.50;4.88;;;;;;;4.08;100.00;99141.94;6224122;23;20089;-71
2022/04/07 05:53:56;;;;;;;6.38;4.47;;;;;;;3.89;100.00;99102.69;6171091;23;20074;-69
2022/04/07 05:56:40;;;;;;;6.90;4.00;;;;;;;3.87;100.00;99130.66;6202236;23;20418;-68
2022/04/07 05:59:25;;;;;;;9.43;4.87;;;;;;;3.93;100.00;99104.44;6191535;23;20079;-67
2022/04/07 06:02:10;;;;;;;7.53;5.07;;;;;;;4.32;100.00;99125.22;6224004;23;20062;-71
2022/04/07 06:04:54;;;;;;;7.68;4.45;;;;;;;4.28;100.00;99121.72;6223466;23;20481;-67
2022/04/07 06:07:39;;;;;;;6.78;4.00;;;;;;;4.37;100.00;99115.56;6191959;23;20032;-68
2022/04/07 06:10:23;;;;;;;8.52;3.92;;;;;;;4.62;100.00;99107.50;6222442;23;20162;-71
2022/04/07 06:13:09;;;;;;;9.05;3.58;;;;;;;4.72;100.00;99108.31;6192435;23;20024;-69
2022/04/07 06:15:53;;;;;;;5.40;2.92;;;;;;;4.63;100.00;99085.63;6191739;23;20343;-72
2022/04/07 06:18:37;;;;;;;5.07;3.53;;;;;;;4.57;100.00;99093.56;6225303;23;20142;-70
2022/04/07 06:21:25;;;;;;;7.65;3.63;;;;;;;4.52;100.00;99062.97;6225125;23;20035;-69
2022/04/07 06:24:10;;;;;;;6.65;3.15;;;;;;;4.49;100.00;99087.50;6225357;23;20106;-68
2022/04/07 06:26:54;;;;;;;3.67;2.78;;;;;;;4.25;100.00;99064.03;6213195;23;20032;-70
2022/04/07 06:29:38;;;;;;;5.50;3.40;;;;;;;4.36;100.00;99087.56;6223736;23;20031;-68
2022/04/07 06:32:23;;;;;;;9.65;4.45;;;;;;;4.56;100.00;99069.94;6225263;23;20036;-70
2022/04/07 06:35:10;;;;;;;9.43;6.63;;;;;;;4.42;100.00;99066.53;6223208;23;20027;-67
2022/04/07 06:37:56;;;;;;;9.43;5.75;;;;;;;4.29;100.00;99047.41;6222958;23;20027;-68
2022/04/07 06:40:41;;;;;;;7.32;5.40;;;;;;;4.40;100.00;99053.41;6224801;23;20517;-66
2022/04/07 06:43:26;;;;;;;8.48;5.30;;;;;;;4.46;100.00;99055.13;6202228;23;20031;-67
2022/04/07 06:46:11;;;;;;;8.95;5.15;;;;;;;4.41;100.00;99054.28;6224840;23;20034;-67
2022/04/07 06:48:55;;;;;;;;;;;;;;;4.53;100.00;99047.22;6223756;23;20031;-67
2022/04/07 06:51:40;;;;;;;8.55;4.63;;;;;;;4.44;100.00;99028.03;6224615;23;19923;-68
2022/04/07 06:54:24;;;;;;;9.75;5.28;;;;;;;4.68;100.00;99048.84;6224650;23;20031;-67
2022/04/07 06:57:09;;;;;;;10.45;4.10;;;;;;;4.52;100.00;99049.84;6212281;23;20023;-67
2022/04/07 06:59:53;;;;;;;8.07;4.45;;;;;;;4.34;100.00;99052.59;6202061;23;20047;-67
2022/04/07 07:02:38;;;;;;;8.93;4.97;;;;;;;4.34;100.00;99049.97;6214356;23;20026;-67
2022/04/07 07:05:25;;;;;;;9.07;5.17;;;;;;;4.51;100.00;99058.63;6215308;23;20412;-68
2022/04/07 07:08:21;;;;;;;7.05;4.68;;;;;;;4.52;100.00;99049.84;6203097;23;20787;-68
2022/04/07 07:11:05;;;;;;;9.98;5.05;;;;;;;4.32;100.00;99046.50;6204011;23;20462;-67
2022/04/07 07:13:49;;;;;;;9.73;5.85;;;;;;;4.31;100.00;99057.84;6215327;23;20074;-71
2022/04/07 07:16:34;;;;;;;9.25;5.57;;;;;;;4.17;100.00;99051.84;6213988;23;20471;-69
2022/04/07 07:19:20;;;;;;;9.43;6.07;;;;;;;4.32;100.00;99057.00;6214536;23;20027;-68
2022/04/07 07:22:04;;;;;;;10.02;5.43;;;;;;;4.27;100.00;99051.75;6202906;23;20181;-67
2022/04/07 07:24:51;;;;;;;8.48;5.10;;;;;;;4.20;100.00;99036.09;6203654;23;20082;-67
2022/04/07 07:27:37;;;;;;;8.70;5.50;;;;;;;4.25;100.00;99044.78;6203384;23;20410;-68
2022/04/07 07:30:22;;;;;;;9.85;5.05;;;;;;;4.42;100.00;99035.03;6193856;23;20103;-73
2022/04/07 07:33:07;;;;;;;7.55;5.03;;;;;;;4.32;100.00;99044.72;6226144;23;20027;-68
2022/04/07 07:35:52;;;;;;;9.82;5.70;;;;;;;4.41;100.00;99038.56;6224411;23;20027;-67
2022/04/07 07:38:36;;;;;;;8.32;4.90;;;;;;;4.37;100.00;99036.84;6224194;23;20482;-68
2022/04/07 07:41:21;;;;;;;7.80;5.07;;;;;;;4.54;100.00;99022.69;6214987;23;20075;-70
2022/04/07 07:44:05;;;;;;;11.75;5.90;;;;;;;4.60;100.00;99024.41;6225133;23;20071;-64
2022/04/07 07:46:50;;;;;;;9.18;5.53;;;;;;;4.52;100.00;99018.34;6224842;23;20104;-63
2022/04/07 07:49:35;;;;;;;8.63;5.60;;;;;;;4.49;100.00;99021.00;6193427;23;20078;-63
2022/04/07 07:52:20;;;;;;;9.95;6.57;;;;;;;4.46;100.00;99015.75;6226266;23;20031;-67
2022/04/07 07:55:05;;;;;;;13.52;7.75;;;;;;;4.42;100.00;99014.03;6214928;23;20567;-65
2022/04/07 07:57:50;;;;;;;13.25;7.60;;;;;;;4.35;100.00;99017.59;6193434;23;20143;-66
2022/04/07 08:00:35;;;;;;;15.18;7.90;;;;;;;4.45;100.00;99009.66;6224710;23;20028;-71
2022/04/07 08:03:19;;;;;;;13.63;7.13;;;;;;;4.62;100.00;99010.38;6172275;23;20032;-69
2022/04/07 08:06:04;;;;;;;8.68;6.05;;;;;;;4.79;100.00;98991.84;6214803;23;20482;-68
2022/04/07 08:08:48;;;;;;;9.85;6.28;;;;;;;4.87;100.00;99005.78;6193314;23;20084;-68
2022/04/07 08:11:33;;;;;;;9.27;5.90;;;;;;;4.52;100.00;98992.09;6215802;23;20055;-67
2022/04/07 08:14:17;;;;;;;8.07;5.50;;;;;;;4.85;100.00;99003.16;6195215;23;20028;-67
2022/04/07 08:17:02;;;;;;;8.45;5.30;;;;;;;4.65;100.00;99001.59;6227977;23;20074;-67
2022/04/07 08:19:48;;;;;;;8.38;5.13;;;;;;;4.61;100.00;99005.13;6225175;23;20024;-69
2022/04/07 08:22:33;;;;;;;8.15;5.30;;;;;;;4.72;100.00;99003.28;6224422;23;20513;-70
2022/04/07 08:25:17;;;;;;;9.20;5.28;;;;;;;4.79;100.00;98994.50;6194663;23;20075;-69
2022/04/07 08:28:02;;;;;;;11.05;6.40;;;;;;;4.89;100.00;98981.25;6192759;23;20023;-68
2022/04/07 08:30:46;;;;;;;12.10;7.00;;;;;;;4.80;100.00;98965.56;6216627;23;20032;-69
2022/04/07 08:33:31;;;;;;;12.27;6.57;;;;;;;4.86;100.00;98967.25;6225725;23;20290;-67
2022/04/07 08:36:15;;;;;;;13.93;7.10;;;;;;;4.90;100.00;98977.72;6202843;23;20346;-69
2022/04/07 08:38:59;;;;;;;8.07;5.68;;;;;;;4.91;100.00;98962.84;6223930;23;20716;-67
2022/04/07 08:41:45;;;;;;;7.72;5.05;;;;;;;5.12;100.00;98981.00;6214681;23;20123;-69
2022/04/07 08:44:33;;;;;;;7.80;5.28;;;;;;;5.07;100.00;98974.94;6192696;23;20043;-66
2022/04/07 08:47:20;;;;;;;6.40;4.45;;;;;;;5.20;100.00;98967.75;6201876;23;20055;-67
2022/04/07 08:50:06;;;;;;;10.85;5.20;;;;;;;5.42;100.00;98956.97;6215191;23;20323;-67
2022/04/07 08:52:53;;;;;;;8.88;4.88;;;;;;;5.40;100.00;98950.88;6223569;23;20355;-67
2022/04/07 08:55:38;;;;;;;10.73;5.75;;;;;;;5.55;100.00;98957.69;6224866;23;20028;-68
2022/04/07 08:58:22;;;;;;;8.18;5.40;;;;;;;5.35;100.00;98955.31;6225127;23;20100;-66
2022/04/07 09:01:07;;;;;;;9.88;5.65;;;;;;;5.50;100.00;98952.47;6223539;23;20094;-75
2022/04/07 09:03:51;;;;;;;9.48;4.80;;;;;;;5.63;100.00;98943.56;6223845;23;20402;-64
2022/04/07 09:06:39;;;;;;;8.93;4.82;;;;;;;5.59;100.00;98943.59;6225065;23;20031;-65
2022/04/07 09:09:24;;;;;;;9.63;4.93;;;;;;;5.77;100.00;98946.00;6225046;23;20043;-64
2022/04/07 09:12:08;;;;;;;7.63;4.93;;;;;;;5.81;100.00;98935.44;6201897;23;20031;-66
2022/04/07 09:14:59;;;;;;;8.75;5.43;;;;;;;6.02;100.00;98934.25;6224197;23;20031;-71
2022/04/07 09:17:53;;;;;;;9.02;4.82;;;;;;;6.17;100.00;98923.50;6192786;23;20419;-68
2022/04/07 09:20:42;;;;;;;6.80;4.13;;;;;;;5.89;100.00;98923.03;6224635;23;20067;-70
2022/04/07 09:23:35;;;;;;;7.53;5.05;;;;;;;5.75;100.00;98922.34;6202188;23;20366;-65
2022/04/07 09:26:20;;;;;;;7.70;4.57;;;;;;;5.84;100.00;98924.00;6202759;23;20070;-66
2022/04/07 09:29:14;;;;;;;6.95;4.55;;;;;;;6.03;100.00;98920.19;6223336;23;20027;-66
2022/04/07 09:31:59;;;;;;;7.75;5.60;;;;;;;6.21;100.00;98912.03;6224738;23;20082;-66
2022/04/07 09:34:45;;;;;;;9.05;6.00;;;;;;;6.32;100.00;98910.94;6225822;23;20030;-66
2022/04/07 09:37:30;;;;;;;10.15;5.85;;;;;;;6.33;100.00;98914.44;6213693;23;20079;-66
2022/04/07 09:40:18;;;;;;;;;;;;;;;6.20;100.00;98911.13;6214397;23;20027;-63
2022/04/07 09:43:03;;;;;;;9.75;5.45;;;;;;;5.87;100.00;98922.19;6223909;23;19966;-65
2022/04/07 09:45:48;;;;;;;8.55;5.07;;;;;;;5.91;100.00;98900.22;6225260;23;20512;-79
2022/04/07 09:48:33;;;;;;;11.32;5.15;;;;;;;5.98;100.00;98901.00;6214559;23;20066;-66
2022/04/07 09:51:18;;;;;;;9.73;6.30;;;;;;;5.89;100.00;98886.22;6212596;23;20078;-67
2022/04/07 09:54:06;;;;;;;9.68;5.65;;;;;;;6.16;100.00;98898.03;6192082;23;20026;-65
2022/04/07 09:56:52;;;;;;;8.45;5.65;;;;;;;6.24;100.00;98899.66;6212743;23;20031;-68
2022/04/07 09:59:40;;;;;;;12.55;6.68;;;;;;;6.27;100.00;98899.63;6222775;23;20031;-67
2022/04/07 10:02:25;;;;;;;11.43;6.20;;;;;;;6.46;100.00;98882.63;6189405;23;20768;-67
2022/04/07 10:05:10;;;;;;;8.27;5.78;;;;;;;6.35;100.00;98884.56;6211180;23;20047;-69
2022/04/07 10:07:59;;;;;;;12.27;7.30;;;;;;;6.49;100.00;98879.91;6221371;23;20083;-69
2022/04/07 10:10:44;;;;;;;13.23;6.95;;;;;;;6.62;100.00;98878.81;6220171;23;20027;-68
2022/04/07 10:13:29;;;;;;;;;;;;;;;6.77;100.00;98880.28;6213730;23;20032;-69
2022/04/07 10:16:15;;;;;;;11.27;6.10;;;;;;;6.71;100.00;98869.84;6190678;23;19970;-66
2022/04/07 10:19:02;;;;;;;9.45;6.28;;;;;;;6.87;100.00;98863.38;6170977;23;20031;-71
2022/04/07 10:21:55;;;;;;;11.50;6.47;;;;;;;7.00;100.00;98875.44;6171100;23;20032;-68
2022/04/07 10:24:48;;;;;;;10.65;6.78;;;;;;;6.99;100.00;98877.19;6191481;23;20143;-68
2022/04/07 10:27:44;;;;;;;11.85;6.57;;;;;;;6.96;100.00;98866.72;6222086;23;20031;-68
2022/04/07 10:30:30;;;;;;;12.00;6.68;;;;;;;7.00;100.00;98863.13;6222520;23;20079;-66
2022/04/07 10:33:41;;;;;;;12.63;7.28;;;;;;;7.15;100.00;98859.28;6221164;23;20032;-67
2022/04/07 10:36:38;;;;;;;14.38;7.30;;;;;;;7.19;100.00;98850.41;6193459;23;20119;-67
2022/04/07 10:39:24;;;;;;;16.15;8.57;;;;;;;7.08;100.00;98855.91;6223360;23;20370;-66
2022/04/07 10:42:09;;;;;;;14.65;9.25;;;;;;;7.24;100.00;98848.56;6225126;23;20103;-66
2022/04/07 10:45:06;;;;;;;15.00;8.32;;;;;;;7.26;100.00;98849.38;6225966;23;20028;-67
2022/04/07 10:48:27;;;;;;;14.85;8.30;;;;;;;7.24;100.00;98867.88;6225952;23;20023;-67
2022/04/07 10:51:13;;;;;;;13.45;8.25;;;;;;;7.23;100.00;98862.63;6205863;23;20074;-68
2022/04/07 10:54:02;;;;;;;12.90;7.85;;;;;;;7.33;100.00;98864.19;6203032;23;20533;-65
2022/04/07 10:56:52;;;;;;;14.65;7.97;;;;;;;7.29;100.00;98851.97;6222128;23;20027;-66
2022/04/07 10:59:40;;;;;;;14.02;8.25;;;;;;;7.45;100.00;98856.00;6214426;23;20070;-68
2022/04/07 11:02:32;;;;;;;14.18;8.93;;;;;;;7.51;100.00;98846.19;6192451;23;20482;-66
2022/04/07 11:05:24;;;;;;;14.60;8.35;;;;;;;7.58;100.00;98826.69;6221306;23;20032;-68
2022/04/07 11:08:11;;;;;;;15.05;9.02;;;;;;;7.73;100.00;98847.44;6172484;23;20083;-66
2022/04/07 11:10:57;;;;;;;12.15;7.82;;;;;;;7.94;100.00;98838.13;6192023;23;20090;-71
2022/04/07 11:13:46;;;;;;;14.18;7.78;;;;;;;8.08;100.00;98833.38;6206384;23;20055;-65
2022/04/07 11:16:36;;;;;;;15.35;7.82;;;;;;;8.14;100.00;98834.09;6197477;23;20359;-67
2022/04/07 11:19:51;;;;;;;12.15;7.93;;;;;;;8.18;100.00;98833.13;6198789;23;20033;-68
2022/04/07 11:22:56;;;;;;;14.55;8.00;;;;;;;8.17;100.00;98830.50;6174368;23;20036;-68
2022/04/07 11:25:42;;;;;;;12.00;7.28;;;;;;;8.10;100.00;98837.72;6193020;23;20407;-66
2022/04/07 11:28:30;;;;;;;10.98;7.15;;;;;;;8.23;100.00;98828.59;6225138;23;20094;-68
2022/04/07 11:31:40;;;;;;;11.45;7.13;;;;;;;8.35;100.00;98828.28;6223554;23;20028;-66
2022/04/07 11:34:41;;;;;;;11.27;7.07;;;;;;;8.42;100.00;98814.03;6202670;23;20032;-67
2022/04/07 11:37:26;;;;;;;12.95;8.20;;;;;;;8.42;100.00;98821.06;6223725;23;20027;-65
2022/04/07 11:40:11;;;;;;;14.35;8.07;;;;;;;8.47;100.00;98813.91;6193247;23;20027;-67
2022/04/07 11:42:58;;;;;;;15.15;8.77;;;;;;;8.60;100.00;98818.81;6213829;23;20062;-67
2022/04/07 11:45:45;;;;;;;12.38;7.95;;;;;;;8.61;100.00;98806.47;6224216;23;20402;-67
2022/04/07 11:48:31;;;;;;;14.57;8.45;;;;;;;8.61;100.00;98814.38;6192109;23;20066;-67
2022/04/07 11:51:19;;;;;;;16.58;9.00;;;;;;;8.57;100.00;98803.03;6192951;23;20023;-69
2022/04/07 11:54:04;;;;;;;12.88;8.75;;;;;;;8.68;100.00;98794.81;6223370;23;20103;-69
2022/04/07 11:56:50;;;;;;;13.43;8.52;;;;;;;8.74;100.00;98800.78;6224018;23;20051;-68
2022/04/07 11:59:36;;;;;;;13.48;8.65;;;;;;;8.72;100.00;98792.06;6223644;23;20036;-68
2022/04/07 12:02:23;;;;;;;15.43;9.07;;;;;;;8.76;100.00;98784.91;6213544;23;20032;-68
2022/04/07 12:05:11;;;;;;;17.05;9.50;;;;;;;8.82;100.00;98784.72;6224234;23;20032;-68
2022/04/07 12:08:14;;;;;;;17.92;9.40;;;;;;;8.80;100.00;98783.91;6215654;23;20031;-68
2022/04/07 12:10:59;;;;;;;17.05;9.52;;;;;;;8.86;100.00;98789.00;6193334;23;20051;-67
2022/04/07 12:13:44;;;;;;;16.95;9.55;;;;;;;8.98;100.00;98791.31;6171856;23;20090;-67
2022/04/07 12:16:29;;;;;;;13.80;9.30;;;;;;;9.01;100.00;98786.78;6172731;23;20476;-67
2022/04/07 12:19:13;;;;;;;17.83;9.93;;;;;;;8.70;100.00;98762.16;6223906;23;20421;-67
2022/04/07 12:21:58;;;;;;;21.58;10.68;;;;;;;8.96;100.00;98783.41;6215273;23;20059;-68
2022/04/07 12:24:59;;;;;;;18.75;11.52;;;;;;;9.27;100.00;98770.13;6224606;23;20046;-66
2022/04/07 12:27:45;;;;;;;19.45;13.10;;;;;;;9.38;100.00;98778.63;6201650;23;20079;-69
2022/04/07 12:30:48;;;;;;;21.08;12.45;;;;;;;9.53;100.00;98788.69;6203310;23;20027;-66
2022/04/07 12:33:39;;;;;;;18.60;12.23;;;;;;;9.82;100.00;98788.66;6202819;23;20143;-70
2022/04/07 12:36:30;;;;;;;17.08;12.30;;;;;;;9.97;100.00;98785.47;6192785;23;20423;-69
2022/04/07 12:39:15;;;;;;;19.55;11.93;;;;;;;9.75;100.00;98779.19;6201440;23;20358;-67
2022/04/07 12:42:06;;;;;;;20.55;12.02;;;;;;;9.85;100.00;98780.59;6216149;23;20059;-68
2022/04/07 12:45:02;;;;;;;17.77;11.63;;;;;;;9.76;100.00;98780.06;6182032;23;20075;-68
2022/04/07 12:48:07;;;;;;;18.85;12.23;;;;;;;9.74;100.00;98779.22;6175012;23;20346;-71
2022/04/07 12:50:52;;;;;;;17.50;12.00;;;;;;;9.61;100.00;98775.25;6172315;23;20414;-67
2022/04/07 12:53:39;;;;;;;;;;;;;;;9.83;100.00;98774.50;6171855;23;20367;-69
2022/04/07 12:56:26;;;;;;;18.20;12.13;;;;;;;9.77;100.00;98776.47;6224872;23;19939;-67
2022/04/07 12:59:15;;;;;;;20.48;12.00;;;;;;;9.69;100.00;98766.13;6213968;23;20031;-67
2022/04/07 13:01:59;;;;;;;19.63;12.57;;;;;;;9.64;100.00;98762.75;6215607;23;20066;-67